createdAt,value
2022-12-08T00:03:50.320Z,79.30
2022-12-08T00:08:49.038Z,79.47
2022-12-08T00:13:48.915Z,78.19
2022-12-08T00:18:48.822Z,78.02
2022-12-08T00:23:48.826Z,78.02
2022-12-08T00:28:51.783Z,78.89
2022-12-08T00:33:48.618Z,79.71
2022-12-08T00:38:48.724Z,77.67
2022-12-08T00:43:48.460Z,77.88
2022-12-08T00:48:48.596Z,77.81
2022-12-08T00:53:48.362Z,77.12
2022-12-08T00:58:48.335Z,77.95
2022-12-08T01:03:48.306Z,78.19
2022-12-08T01:08:48.965Z,77.98
2022-12-08T01:13:48.108Z,77.98
2022-12-08T01:18:48.091Z,78.16
2022-12-08T01:23:48.026Z,78.61
2022-12-08T01:28:50.942Z,78.81
2022-12-08T01:33:47.882Z,78.75
2022-12-08T01:38:47.811Z,78.26
2022-12-08T01:43:47.670Z,78.36
2022-12-08T01:48:47.690Z,78.26
2022-12-08T01:53:47.564Z,78.30
2022-12-08T01:58:47.604Z,78.36
2022-12-08T02:03:47.536Z,79.02
2022-12-08T02:08:47.521Z,77.74
2022-12-08T02:13:47.401Z,77.95
2022-12-08T02:19:07.994Z,77.09
2022-12-08T02:23:48.206Z,77.33
2022-12-08T02:28:50.125Z,77.88
2022-12-08T02:33:54.423Z,77.81
2022-12-08T02:38:47.013Z,76.36
2022-12-08T02:43:47.024Z,78.02
2022-12-08T02:48:46.840Z,76.57
2022-12-08T02:53:46.861Z,76.98
2022-12-08T02:58:46.770Z,77.29
2022-12-08T03:03:46.734Z,77.60
2022-12-08T03:08:46.614Z,77.91
2022-12-08T03:13:46.655Z,78.88
2022-12-08T03:18:46.580Z,77.15
2022-12-08T03:23:46.922Z,78.16
2022-12-08T03:28:49.348Z,78.57
2022-12-08T03:33:46.296Z,79.23
2022-12-08T03:38:46.230Z,79.44
2022-12-08T03:43:46.127Z,79.50
2022-12-08T03:48:46.112Z,79.71
2022-12-08T03:53:46.071Z,80.29
2022-12-08T03:58:45.986Z,80.29
2022-12-08T04:03:45.895Z,80.29
2022-12-08T04:08:45.844Z,79.94
2022-12-08T04:13:45.716Z,79.84
2022-12-08T04:18:45.715Z,79.84
2022-12-08T04:23:45.626Z,80.64
2022-12-08T04:28:49.852Z,81.40
2022-12-08T04:33:45.580Z,82.48
2022-12-08T04:38:45.530Z,81.16
2022-12-08T04:43:45.384Z,80.43
2022-12-08T04:48:45.330Z,82.17
2022-12-08T04:53:46.974Z,82.20
2022-12-08T04:58:45.250Z,82.65
2022-12-08T05:03:45.156Z,82.34
2022-12-08T05:08:45.069Z,81.27
2022-12-08T05:13:45.031Z,81.62
2022-12-08T05:18:45.000Z,82.07
2022-12-08T05:23:52.492Z,80.47
2022-12-08T05:28:55.063Z,81.97
2022-12-08T05:33:52.215Z,81.66
2022-12-08T05:38:44.669Z,81.10
2022-12-08T05:43:44.573Z,81.73
2022-12-08T05:48:44.554Z,81.80
2022-12-08T05:53:44.674Z,82.04
2022-12-08T05:58:44.684Z,81.52
2022-12-08T06:03:44.373Z,83.01
2022-12-08T06:08:44.309Z,82.50
2022-12-08T06:13:44.240Z,82.18
2022-12-08T06:18:44.268Z,83.05
2022-12-08T06:23:44.178Z,84.03
2022-12-08T06:28:47.056Z,84.03
2022-12-08T06:33:44.021Z,85.52
2022-12-08T06:38:44.261Z,84.41
2022-12-08T06:43:43.795Z,84.30
2022-12-08T06:48:43.829Z,83.68
2022-12-08T06:53:43.659Z,82.39
2022-12-08T06:58:49.014Z,82.35
2022-12-08T07:03:44.647Z,82.21
2022-12-08T07:08:43.495Z,82.01
2022-12-08T07:13:43.488Z,81.04
2022-12-08T07:18:43.377Z,82.63
2022-12-08T07:23:43.544Z,82.21
2022-12-08T07:28:46.256Z,82.87
2022-12-08T07:33:43.186Z,84.05
2022-12-08T07:38:43.178Z,82.98
2022-12-08T07:43:43.143Z,82.39
2022-12-08T07:48:43.203Z,82.45
2022-12-08T07:53:45.297Z,81.82
2022-12-08T07:58:42.887Z,81.30
2022-12-08T08:03:42.789Z,80.85
2022-12-08T08:08:42.823Z,80.44
2022-12-08T08:15:11.645Z,77.67
2022-12-08T08:20:11.693Z,79.06
2022-12-08T08:25:11.320Z,79.74
2022-12-08T08:30:15.203Z,79.44
2022-12-08T08:35:12.244Z,78.22
2022-12-08T08:40:11.098Z,78.26
2022-12-08T08:45:11.085Z,78.67
2022-12-08T08:50:11.112Z,78.16
2022-12-08T08:55:11.108Z,77.39
2022-12-08T09:00:10.926Z,77.19
2022-12-08T09:05:14.105Z,77.15
2022-12-08T09:10:10.754Z,77.67
2022-12-08T09:15:10.888Z,75.95
2022-12-08T09:20:10.577Z,75.19
2022-12-08T09:25:12.307Z,77.33
2022-12-08T09:30:10.545Z,75.67
2022-12-08T09:35:10.398Z,74.60
2022-12-08T09:40:10.354Z,75.15
2022-12-08T09:45:10.299Z,74.02
2022-12-08T09:50:10.234Z,75.01
2022-12-08T09:55:10.215Z,74.26
2022-12-08T10:00:10.169Z,72.33
2022-12-08T10:05:13.204Z,71.82
2022-12-08T10:10:09.943Z,73.74
2022-12-08T10:15:10.118Z,73.98
2022-12-08T10:20:09.785Z,73.50
2022-12-08T10:25:09.830Z,73.91
2022-12-08T10:30:09.679Z,74.19
2022-12-08T10:35:09.676Z,72.75
2022-12-08T10:40:09.688Z,71.72
2022-12-08T10:45:09.629Z,71.85
2022-12-08T10:50:17.497Z,71.10
2022-12-08T10:55:16.906Z,71.85
2022-12-08T11:00:19.412Z,70.48
2022-12-08T11:05:20.918Z,71.26
2022-12-08T11:10:09.258Z,72.50
2022-12-08T11:15:09.183Z,70.04
2022-12-08T11:20:09.496Z,69.73
2022-12-08T11:25:09.043Z,70.04
2022-12-08T11:30:14.057Z,68.66
2022-12-08T11:35:10.074Z,68.18
2022-12-08T11:40:09.127Z,68.46
2022-12-08T11:45:08.861Z,68.43
2022-12-08T11:50:08.711Z,68.12
2022-12-08T11:55:08.685Z,68.74
2022-12-08T12:00:08.765Z,68.62
2022-12-08T12:05:11.935Z,67.74
2022-12-08T12:10:08.600Z,70.03
2022-12-08T12:15:09.190Z,69.65
2022-12-08T12:20:08.490Z,69.21
2022-12-08T12:25:08.257Z,68.80
2022-12-08T12:30:10.143Z,69.59
2022-12-08T12:35:08.121Z,68.66
2022-12-08T12:40:08.432Z,68.59
2022-12-08T12:45:07.998Z,67.78
2022-12-08T12:50:08.206Z,67.26
2022-12-08T12:55:07.840Z,67.57
2022-12-08T13:00:08.291Z,67.53
2022-12-08T13:05:10.819Z,67.26
2022-12-08T13:10:07.823Z,68.53
2022-12-08T13:15:07.685Z,66.41
2022-12-08T13:20:07.932Z,67.26
2022-12-08T13:25:07.699Z,67.16
2022-12-08T13:30:07.709Z,67.06
2022-12-08T13:35:07.478Z,68.90
2022-12-08T13:40:07.582Z,67.19
2022-12-08T13:45:48.634Z,68.87
2022-12-08T14:01:19.105Z,68.59
2022-12-08T14:06:18.536Z,67.53
2022-12-08T14:11:17.930Z,68.77
2022-12-08T14:16:18.094Z,67.63
2022-12-08T14:21:21.760Z,68.29
2022-12-08T14:26:18.579Z,69.18
2022-12-08T14:31:17.711Z,68.49
2022-12-08T14:36:17.694Z,69.01
2022-12-08T14:41:20.754Z,70.00
2022-12-08T14:46:17.502Z,70.41
2022-12-08T14:51:17.540Z,68.56
2022-12-08T14:56:17.331Z,68.56
2022-12-08T15:01:17.462Z,70.51
2022-12-08T15:06:17.401Z,70.92
2022-12-08T15:11:17.223Z,71.85
2022-12-08T15:16:17.216Z,71.51
2022-12-08T15:21:17.325Z,72.19
2022-12-08T15:26:17.148Z,72.13
2022-12-08T15:31:19.074Z,72.02
2022-12-08T15:36:16.863Z,73.09
2022-12-08T15:41:19.796Z,72.54
2022-12-08T15:46:16.964Z,73.54
2022-12-08T15:51:23.828Z,70.86
2022-12-08T15:56:28.312Z,71.26
2022-12-08T16:01:24.217Z,72.02
2022-12-08T16:07:12.889Z,73.19
2022-12-08T16:11:56.772Z,72.26
2022-12-08T16:16:17.353Z,73.91
2022-12-08T16:21:41.789Z,72.88
2022-12-08T16:26:35.761Z,72.78
2022-12-08T16:31:22.690Z,73.85
2022-12-08T16:36:18.106Z,73.19
2022-12-08T16:41:19.246Z,72.71
2022-12-08T16:46:15.950Z,73.12
2022-12-08T16:51:16.045Z,72.26
2022-12-08T16:56:15.903Z,73.50
2022-12-08T17:01:15.815Z,73.02
2022-12-08T17:06:15.715Z,72.61
2022-12-08T17:11:15.630Z,73.54
2022-12-08T17:16:15.581Z,74.08
2022-12-08T17:21:15.966Z,74.19
2022-12-08T17:26:15.406Z,74.08
2022-12-08T17:31:15.495Z,74.36
2022-12-08T17:36:15.242Z,75.26
2022-12-08T17:41:18.957Z,75.15
2022-12-08T17:46:15.216Z,75.78
2022-12-08T17:51:15.195Z,76.18
2022-12-08T17:56:15.077Z,75.26
2022-12-08T18:01:15.050Z,74.81
2022-12-08T18:06:14.890Z,73.98
2022-12-08T18:11:14.863Z,74.81
2022-12-08T18:16:14.872Z,74.95
2022-12-08T18:21:21.476Z,74.74
2022-12-08T18:26:15.649Z,75.81
2022-12-08T18:31:14.778Z,75.50
2022-12-08T18:36:14.501Z,76.43
2022-12-08T18:41:17.509Z,75.91
2022-12-08T18:46:14.498Z,77.64
2022-12-08T18:51:14.388Z,76.32
2022-12-08T18:56:14.386Z,75.81
2022-12-08T19:01:14.291Z,76.32
2022-12-08T19:06:14.177Z,77.22
2022-12-08T19:11:14.119Z,76.39
2022-12-08T19:16:14.090Z,76.50
2022-12-08T19:21:14.001Z,76.39
2022-12-08T19:26:13.857Z,76.46
2022-12-08T19:31:13.986Z,76.18
2022-12-08T19:36:14.007Z,77.43
2022-12-08T19:41:16.736Z,76.67
2022-12-08T19:46:14.013Z,78.70
2022-12-08T19:51:14.611Z,76.95
2022-12-08T19:56:13.602Z,76.70
2022-12-08T20:01:13.437Z,76.32
2022-12-08T20:06:13.350Z,76.91
2022-12-08T20:11:13.270Z,76.26
2022-12-08T20:16:13.322Z,77.33
2022-12-08T20:21:13.133Z,77.67
2022-12-08T20:26:13.150Z,77.33
2022-12-08T20:31:13.057Z,76.09
2022-12-08T20:36:12.937Z,75.63
2022-12-08T20:41:16.035Z,75.84
2022-12-08T20:46:12.894Z,77.43
2022-12-08T20:51:12.837Z,76.32
2022-12-08T20:56:21.321Z,75.36
2022-12-08T21:01:13.027Z,77.08
2022-12-08T21:06:12.844Z,77.94
2022-12-08T21:11:12.545Z,77.08
2022-12-08T21:16:12.563Z,77.08
2022-12-08T21:21:12.599Z,77.36
2022-12-08T21:26:12.501Z,77.15
2022-12-08T21:31:12.496Z,78.32
2022-12-08T21:36:12.472Z,78.22
2022-12-08T21:41:15.591Z,78.84
2022-12-08T21:46:19.945Z,79.91
2022-12-08T21:51:19.639Z,77.25
2022-12-08T21:56:20.148Z,77.67
2022-12-08T22:01:12.035Z,80.19
2022-12-08T22:06:15.502Z,79.56
2022-12-08T22:12:29.169Z,79.39
2022-12-08T22:17:28.970Z,81.43
2022-12-08T22:22:28.815Z,79.87
2022-12-08T22:27:29.019Z,81.33
2022-12-08T22:57:34.082Z,80.81
2022-12-08T23:12:11.748Z,81.64
2022-12-08T23:17:17.824Z,79.94
2022-12-08T23:22:10.194Z,82.19
2022-12-08T23:27:10.220Z,81.23
2022-12-08T23:32:10.016Z,82.86
2022-12-08T23:37:09.917Z,81.40
2022-12-08T23:42:09.795Z,81.92
2022-12-08T23:47:10.244Z,82.09
2022-12-08T23:52:09.958Z,82.48
2022-12-08T23:57:10.720Z,83.76
